createdAt,value
2022-09-26T00:01:43.165Z,15.53
2022-09-26T00:04:18.478Z,15.87
2022-09-26T00:06:49.738Z,15.17
2022-09-26T00:09:19.802Z,15.90
2022-09-26T00:14:25.387Z,17.37
2022-09-26T00:16:54.000Z,17.60
2022-09-26T00:19:22.361Z,17.80
2022-09-26T00:21:50.596Z,17.63
2022-09-26T00:24:20.460Z,16.50
2022-09-26T00:26:48.695Z,17.17
2022-09-26T00:29:16.989Z,19.00
2022-09-26T00:31:47.523Z,18.27
2022-09-26T00:34:17.734Z,19.03
2022-09-26T00:36:46.018Z,20.47
2022-09-26T00:39:16.297Z,20.27
2022-09-26T00:41:46.560Z,20.27
2022-09-26T00:44:49.958Z,21.47
2022-09-26T00:47:26.725Z,20.87
2022-09-26T00:49:58.054Z,19.90
2022-09-26T00:52:32.337Z,19.70
2022-09-26T00:55:03.518Z,20.23
2022-09-26T00:57:38.509Z,20.53
2022-09-26T01:00:10.051Z,20.37
2022-09-26T01:02:39.119Z,19.40
2022-09-26T01:05:09.037Z,21.03
2022-09-26T01:07:37.344Z,23.57
2022-09-26T01:10:07.161Z,22.07
2022-09-26T01:12:39.542Z,22.47
2022-09-26T01:15:09.529Z,26.23
2022-09-26T01:17:39.649Z,26.80
2022-09-26T01:20:22.816Z,28.70
2022-09-26T01:23:28.502Z,29.63
2022-09-26T01:26:25.894Z,27.33
2022-09-26T01:29:18.634Z,26.23
2022-09-26T01:32:11.809Z,26.93
2022-09-26T01:34:50.915Z,28.27
2022-09-26T01:37:30.529Z,27.20
2022-09-26T01:40:09.076Z,26.80
2022-09-26T01:42:44.293Z,26.87
2022-09-26T01:45:17.398Z,28.07
2022-09-26T01:47:51.727Z,24.90
2022-09-26T01:50:26.940Z,24.40
2022-09-26T01:53:00.815Z,22.93
2022-09-26T01:55:34.733Z,22.37
2022-09-26T01:58:09.397Z,19.07
2022-09-26T02:00:40.994Z,17.17
2022-09-26T02:03:14.595Z,19.63
2022-09-26T02:05:47.811Z,18.93
2022-09-26T02:08:21.214Z,19.77
2022-09-26T02:10:51.826Z,19.10
2022-09-26T02:13:24.556Z,18.63
2022-09-26T02:16:08.636Z,17.93
2022-09-26T02:18:45.778Z,16.67
2022-09-26T02:21:18.155Z,15.80
2022-09-26T02:23:47.626Z,15.33
2022-09-26T02:26:16.139Z,14.17
2022-09-26T02:28:44.774Z,13.13
2022-09-26T02:31:20.587Z,13.90
2022-09-26T02:33:50.826Z,13.90
2022-09-26T02:36:21.122Z,15.37
2022-09-26T02:38:49.662Z,15.73
2022-09-26T02:41:23.917Z,13.43
2022-09-26T02:44:06.533Z,11.63
2022-09-26T02:47:16.435Z,12.27
2022-09-26T02:50:19.162Z,11.70
2022-09-26T02:53:00.363Z,12.03
2022-09-26T02:55:37.274Z,9.80
2022-09-26T02:58:14.485Z,8.33
2022-09-26T03:00:52.457Z,7.83
2022-09-26T03:03:26.274Z,7.50
2022-09-26T03:05:59.878Z,8.43
2022-09-26T03:08:30.597Z,9.73
2022-09-26T03:11:02.650Z,9.80
2022-09-26T03:13:36.176Z,11.10
2022-09-26T03:16:04.824Z,8.43
2022-09-26T03:18:37.267Z,9.90
2022-09-26T03:21:07.147Z,10.27
2022-09-26T03:23:36.233Z,10.73
2022-09-26T03:26:11.117Z,11.43
2022-09-26T03:28:39.642Z,10.13
2022-09-26T03:31:08.176Z,9.80
2022-09-26T03:33:36.413Z,9.07
2022-09-26T03:36:09.528Z,10.27
2022-09-26T03:38:37.803Z,10.70
2022-09-26T03:41:07.302Z,11.40
2022-09-26T03:43:35.495Z,11.37
2022-09-26T03:46:04.954Z,11.67
2022-09-26T03:48:34.283Z,11.33
2022-09-26T03:51:08.389Z,11.60
2022-09-26T03:53:38.775Z,12.00
2022-09-26T03:56:08.573Z,10.80
2022-09-26T03:58:36.852Z,11.90
2022-09-26T04:01:07.885Z,12.70
2022-09-26T04:03:36.811Z,12.83
2022-09-26T04:06:08.507Z,14.77
2022-09-26T04:08:38.449Z,17.73
2022-09-26T04:11:08.746Z,23.00
2022-09-26T04:13:51.351Z,19.37
2022-09-26T04:16:21.271Z,16.90
2022-09-26T04:18:49.721Z,21.13
2022-09-26T04:21:19.328Z,23.50
2022-09-26T04:23:47.635Z,26.83
2022-09-26T04:26:22.736Z,26.83
2022-09-26T04:28:54.982Z,16.83
2022-09-26T04:31:24.021Z,13.27
2022-09-26T04:33:54.902Z,13.67
2022-09-26T04:36:24.927Z,18.83
2022-09-26T04:38:53.184Z,17.80
2022-09-26T04:41:22.974Z,17.13
2022-09-26T04:43:51.439Z,19.57
2022-09-26T04:46:24.612Z,19.97
2022-09-26T04:48:56.709Z,23.53
2022-09-26T04:51:28.030Z,25.13
2022-09-26T04:53:56.787Z,24.80
2022-09-26T04:56:27.399Z,24.47
2022-09-26T04:58:57.630Z,27.63
2022-09-26T05:01:28.117Z,24.37
2022-09-26T05:03:57.698Z,26.27
2022-09-26T05:06:27.446Z,26.47
2022-09-26T05:08:55.646Z,29.67
2022-09-26T05:11:24.550Z,75.73
2022-09-26T05:13:53.911Z,61.77
2022-09-26T05:16:24.016Z,44.40
2022-09-26T05:18:53.114Z,27.67
2022-09-26T05:21:21.584Z,28.17
2022-09-26T05:24:08.610Z,27.90
2022-09-26T05:26:45.378Z,34.90
2022-09-26T05:29:13.677Z,25.63
2022-09-26T05:31:42.273Z,24.27
2022-09-26T05:34:16.886Z,24.50
2022-09-26T05:36:47.729Z,23.83
2022-09-26T05:39:36.815Z,25.57
2022-09-26T05:42:09.004Z,24.53
2022-09-26T05:44:38.354Z,28.53
2022-09-26T05:47:07.390Z,32.10
2022-09-26T05:49:36.074Z,59.93
2022-09-26T05:52:04.402Z,40.97
2022-09-26T05:54:33.984Z,76.57
2022-09-26T05:57:02.244Z,34.03
2022-09-26T05:59:31.537Z,27.40
2022-09-26T06:01:59.786Z,47.00
2022-09-26T06:04:30.040Z,27.03
2022-09-26T06:06:58.256Z,31.03
2022-09-26T06:09:26.544Z,38.90
2022-09-26T06:11:56.133Z,27.13
2022-09-26T06:14:25.487Z,59.67
2022-09-26T06:16:53.846Z,81.50
2022-09-26T06:19:23.106Z,68.67
2022-09-26T06:21:51.952Z,97.03
2022-09-26T06:24:20.530Z,28.50
2022-09-26T06:26:48.967Z,40.10
2022-09-26T06:29:18.735Z,63.53
2022-09-26T06:31:47.019Z,36.93
2022-09-26T06:34:16.374Z,25.60
2022-09-26T06:36:46.950Z,27.03
2022-09-26T06:39:15.974Z,25.77
2022-09-26T06:41:44.373Z,24.00
2022-09-26T06:44:12.774Z,24.47
2022-09-26T06:46:42.412Z,22.73
2022-09-26T06:49:10.695Z,23.40
2022-09-26T06:51:38.973Z,21.43
2022-09-26T06:54:07.357Z,25.20
2022-09-26T06:56:35.600Z,22.33
2022-09-26T06:59:03.871Z,24.87
2022-09-26T07:01:32.705Z,21.60
2022-09-26T07:04:03.046Z,23.60
2022-09-26T07:06:31.720Z,21.80
2022-09-26T07:09:03.946Z,24.63
2022-09-26T07:14:22.269Z,23.80
2022-09-26T07:16:51.166Z,24.73
2022-09-26T07:19:20.965Z,23.57
2022-09-26T07:21:49.628Z,24.57
2022-09-26T07:24:18.036Z,24.00
2022-09-26T07:26:46.357Z,24.40
2022-09-26T07:29:14.777Z,23.83
2022-09-26T07:31:43.126Z,24.93
2022-09-26T07:34:17.330Z,26.10
2022-09-26T07:36:48.456Z,24.90
2022-09-26T07:39:16.872Z,25.17
2022-09-26T07:41:46.229Z,26.63
2022-09-26T07:47:20.820Z,26.07
2022-09-26T07:50:06.115Z,27.73
2022-09-26T07:52:35.734Z,25.67
2022-09-26T07:55:03.921Z,30.80
2022-09-26T07:57:35.584Z,35.70
2022-09-26T08:00:06.032Z,35.67
2022-09-26T08:02:36.117Z,33.70
2022-09-26T08:05:05.461Z,35.83
2022-09-26T08:07:36.857Z,32.57
2022-09-26T08:10:06.952Z,33.00
2022-09-26T08:15:31.357Z,38.63
2022-09-26T08:17:59.627Z,39.03
2022-09-26T08:20:32.038Z,40.77
2022-09-26T08:23:01.985Z,42.47
2022-09-26T08:25:30.187Z,43.33
2022-09-26T08:27:59.606Z,44.67
2022-09-26T08:30:31.357Z,42.53
2022-09-26T08:33:02.439Z,41.37
2022-09-26T08:35:35.757Z,47.07
2022-09-26T08:38:05.808Z,45.60
2022-09-26T08:40:46.003Z,44.93
2022-09-26T08:43:31.223Z,45.93
2022-09-26T08:46:25.396Z,48.60
2022-09-26T08:49:17.908Z,43.43
2022-09-26T08:51:50.849Z,44.13
2022-09-26T08:54:25.253Z,44.63
2022-09-26T08:56:58.204Z,46.00
2022-09-26T08:59:33.082Z,43.20
2022-09-26T09:02:06.951Z,44.00
2022-09-26T09:04:42.897Z,41.33
2022-09-26T09:07:21.446Z,39.80
2022-09-26T09:09:53.067Z,40.77
2022-09-26T09:12:32.521Z,37.80
2022-09-26T09:15:25.175Z,39.40
2022-09-26T09:18:06.985Z,38.90
2022-09-26T09:20:53.261Z,36.53
2022-09-26T09:23:39.055Z,37.33
2022-09-26T09:29:22.233Z,32.60
2022-09-26T09:31:51.428Z,34.33
2022-09-26T09:34:27.782Z,34.73
2022-09-26T09:36:58.894Z,32.27
2022-09-26T09:39:32.498Z,28.87
2022-09-26T09:42:06.057Z,29.80
2022-09-26T09:44:46.505Z,29.67
2022-09-26T09:47:17.006Z,29.40
2022-09-26T09:49:48.191Z,27.60
2022-09-26T09:52:42.301Z,28.30
2022-09-26T09:55:25.796Z,28.70
2022-09-26T09:58:09.407Z,31.10
2022-09-26T10:00:44.158Z,29.53
2022-09-26T10:03:25.608Z,26.13
2022-09-26T10:05:57.693Z,26.13
2022-09-26T10:08:31.441Z,28.97
2022-09-26T10:11:12.991Z,27.03
2022-09-26T10:13:44.723Z,25.57
2022-09-26T10:16:15.282Z,22.60
2022-09-26T10:18:58.250Z,24.40
2022-09-26T10:21:34.298Z,25.50
2022-09-26T10:24:04.780Z,25.87
2022-09-26T10:26:35.977Z,24.00
2022-09-26T10:29:22.411Z,23.73
2022-09-26T10:31:56.933Z,26.33
2022-09-26T10:34:28.107Z,22.93
2022-09-26T10:36:57.005Z,27.87
2022-09-26T10:39:43.538Z,25.47
2022-09-26T10:42:18.630Z,24.43
2022-09-26T10:44:49.314Z,20.67
2022-09-26T10:47:19.518Z,23.53
2022-09-26T10:49:51.966Z,22.70
2022-09-26T10:52:27.841Z,21.17
2022-09-26T10:54:59.895Z,22.27
2022-09-26T10:57:34.653Z,24.47
2022-09-26T11:00:06.783Z,22.73
2022-09-26T11:02:36.166Z,22.90
2022-09-26T11:05:24.536Z,23.40
2022-09-26T11:07:53.674Z,21.90
2022-09-26T11:10:26.718Z,20.60
2022-09-26T11:16:02.843Z,22.17
2022-09-26T11:18:40.868Z,21.00
2022-09-26T11:21:28.158Z,23.83
2022-09-26T11:24:04.645Z,25.70
2022-09-26T11:26:38.678Z,25.07
2022-09-26T11:29:16.742Z,26.97
2022-09-26T11:31:48.614Z,23.23
2022-09-26T11:34:21.914Z,28.13
2022-09-26T11:37:10.421Z,27.77
2022-09-26T11:39:51.714Z,24.17
2022-09-26T11:42:35.550Z,24.93
2022-09-26T11:45:09.989Z,22.07
2022-09-26T11:48:00.790Z,18.57
2022-09-26T11:50:50.255Z,16.70
2022-09-26T11:53:54.113Z,16.70
2022-09-26T11:56:49.954Z,15.83
2022-09-26T11:59:45.445Z,16.40
2022-09-26T12:02:32.117Z,15.67
2022-09-26T12:05:27.604Z,15.03
2022-09-26T12:08:09.376Z,12.93
2022-09-26T12:10:47.859Z,11.73
2022-09-26T12:16:04.602Z,13.43
2022-09-26T12:18:43.610Z,11.83
2022-09-26T12:21:30.648Z,13.07
2022-09-26T12:24:07.531Z,14.77
2022-09-26T12:26:46.610Z,14.00
2022-09-26T12:29:32.270Z,12.17
2022-09-26T12:32:25.268Z,16.90
2022-09-26T12:35:29.743Z,21.20
2022-09-26T12:38:22.296Z,18.30
2022-09-26T12:40:59.299Z,17.67
2022-09-26T12:43:57.872Z,15.13
2022-09-26T12:46:41.732Z,17.03
2022-09-26T12:49:27.250Z,17.57
2022-09-26T12:52:00.460Z,17.23
2022-09-26T12:54:43.872Z,14.20
2022-09-26T12:57:25.201Z,12.70
2022-09-26T13:00:16.707Z,10.07
2022-09-26T13:03:14.834Z,9.00
2022-09-26T13:06:13.986Z,13.20
2022-09-26T13:08:53.387Z,14.20
2022-09-26T13:11:32.678Z,13.03
2022-09-26T13:14:34.915Z,13.57
2022-09-26T13:17:13.882Z,10.33
2022-09-26T13:19:51.527Z,13.50
2022-09-26T13:22:27.627Z,15.10
2022-09-26T13:25:01.353Z,13.47
2022-09-26T13:27:37.320Z,15.20
2022-09-26T13:30:09.038Z,16.70
2022-09-26T13:32:48.787Z,16.73
2022-09-26T13:35:20.898Z,16.73
2022-09-26T13:38:00.778Z,18.57
2022-09-26T13:40:40.235Z,16.10
2022-09-26T13:43:24.480Z,15.67
2022-09-26T13:46:02.306Z,14.27
2022-09-26T13:48:50.231Z,12.43
2022-09-26T13:51:22.787Z,13.30
2022-09-26T13:54:00.017Z,13.67
2022-09-26T13:56:51.973Z,13.37
2022-09-26T13:59:36.007Z,12.33
2022-09-26T14:02:23.409Z,15.23
2022-09-26T14:04:52.865Z,12.73
2022-09-26T14:07:42.876Z,14.10
2022-09-26T14:10:34.451Z,13.27
2022-09-26T14:16:27.106Z,15.10
2022-09-26T14:19:04.220Z,15.33
2022-09-26T14:21:38.865Z,15.13
2022-09-26T14:24:38.397Z,14.50
2022-09-26T14:27:28.476Z,16.53
2022-09-26T14:30:01.937Z,17.30
2022-09-26T14:32:38.219Z,16.17
2022-09-26T14:35:17.858Z,15.87
2022-09-26T14:37:50.110Z,16.50
2022-09-26T14:40:27.227Z,18.80
2022-09-26T14:43:00.392Z,15.90
2022-09-26T14:45:47.556Z,17.00
2022-09-26T14:48:33.541Z,20.27
2022-09-26T14:51:05.526Z,21.23
2022-09-26T14:53:39.354Z,18.43
2022-09-26T14:56:10.482Z,18.33
2022-09-26T14:58:50.578Z,17.90
2022-09-26T15:01:24.804Z,18.63
2022-09-26T15:03:57.782Z,19.27
2022-09-26T15:06:28.699Z,19.70
2022-09-26T15:08:59.312Z,19.50
2022-09-26T15:11:44.180Z,17.00
2022-09-26T15:14:26.380Z,21.17
2022-09-26T15:16:56.929Z,18.67
2022-09-26T15:19:33.461Z,19.10
2022-09-26T15:22:04.362Z,16.10
2022-09-26T15:24:35.704Z,20.23
2022-09-26T15:27:11.611Z,21.33
2022-09-26T15:29:51.057Z,19.53
2022-09-26T15:32:27.189Z,20.13
2022-09-26T15:34:57.781Z,20.47
2022-09-26T15:37:30.143Z,21.23
2022-09-26T15:40:11.837Z,21.13
2022-09-26T15:42:57.526Z,17.13
2022-09-26T15:45:30.209Z,17.53
2022-09-26T15:48:00.041Z,18.97
2022-09-26T15:50:39.716Z,18.00
2022-09-26T15:53:20.192Z,17.07
2022-09-26T15:55:52.927Z,17.03
2022-09-26T15:58:24.943Z,18.40
2022-09-26T16:00:54.158Z,18.93
2022-09-26T16:03:42.395Z,18.67
2022-09-26T16:06:23.679Z,20.60
2022-09-26T16:08:55.310Z,23.10
2022-09-26T16:11:24.262Z,21.90
2022-09-26T16:16:32.189Z,23.57
2022-09-26T16:19:03.310Z,22.30
2022-09-26T16:21:36.569Z,19.87
2022-09-26T16:24:27.923Z,23.33
2022-09-26T16:26:57.261Z,23.13
2022-09-26T16:29:34.857Z,18.27
2022-09-26T16:32:05.438Z,18.83
2022-09-26T16:34:34.142Z,20.50
2022-09-26T16:37:04.271Z,20.40
2022-09-26T16:39:33.477Z,18.67
2022-09-26T16:42:05.918Z,22.17
2022-09-26T16:44:37.445Z,17.37
2022-09-26T16:47:09.197Z,21.70
2022-09-26T16:49:45.768Z,23.63
2022-09-26T16:52:29.477Z,23.67
2022-09-26T16:55:00.349Z,20.70
2022-09-26T16:57:30.705Z,24.90
2022-09-26T17:00:21.181Z,23.03
2022-09-26T17:02:49.759Z,22.37
2022-09-26T17:05:20.443Z,27.50
2022-09-26T17:07:52.535Z,26.50
2022-09-26T17:10:24.331Z,25.97
2022-09-26T17:12:53.334Z,25.80
2022-09-26T17:15:27.852Z,24.50
2022-09-26T17:17:57.078Z,22.73
2022-09-26T17:20:26.985Z,25.07
2022-09-26T17:22:56.806Z,26.30
2022-09-26T17:25:26.105Z,24.47
2022-09-26T17:27:59.667Z,23.63
2022-09-26T17:30:28.283Z,24.63
2022-09-26T17:32:58.951Z,28.20
2022-09-26T17:35:29.876Z,24.90
2022-09-26T17:38:01.841Z,24.43
2022-09-26T17:40:32.611Z,25.47
2022-09-26T17:43:02.073Z,25.37
2022-09-26T17:45:32.740Z,28.90
2022-09-26T17:48:03.590Z,26.97
2022-09-26T17:50:33.527Z,28.63
2022-09-26T17:53:04.151Z,25.47
2022-09-26T17:55:33.554Z,26.40
2022-09-26T17:58:02.363Z,26.23
2022-09-26T18:00:38.984Z,25.90
2022-09-26T18:03:12.108Z,25.50
2022-09-26T18:05:43.246Z,26.73
2022-09-26T18:08:20.851Z,23.67
2022-09-26T18:10:52.678Z,23.50
2022-09-26T18:13:25.266Z,24.53
2022-09-26T18:15:54.200Z,25.33
2022-09-26T18:18:24.826Z,23.40
2022-09-26T18:20:54.774Z,23.67
2022-09-26T18:23:27.309Z,25.23
2022-09-26T18:25:59.015Z,22.57
2022-09-26T18:28:27.857Z,22.97
2022-09-26T18:31:00.839Z,24.40
2022-09-26T18:33:29.418Z,26.27
2022-09-26T18:35:59.223Z,25.10
2022-09-26T18:38:29.102Z,28.57
2022-09-26T18:40:58.910Z,29.00
2022-09-26T18:43:38.981Z,27.70
2022-09-26T18:46:10.149Z,28.60
2022-09-26T18:48:38.549Z,27.50
2022-09-26T18:51:10.566Z,28.40
2022-09-26T18:53:41.140Z,25.77
2022-09-26T18:56:28.257Z,24.63
2022-09-26T18:58:58.507Z,28.60
2022-09-26T19:01:29.799Z,26.10
2022-09-26T19:04:01.404Z,29.43
2022-09-26T19:06:33.277Z,26.30
2022-09-26T19:09:05.443Z,25.80
2022-09-26T19:11:35.119Z,27.33
2022-09-26T19:16:51.847Z,25.77
2022-09-26T19:19:20.816Z,24.17
2022-09-26T19:21:51.243Z,22.97
2022-09-26T19:24:24.132Z,24.27
2022-09-26T19:26:56.433Z,25.73
2022-09-26T19:29:30.015Z,25.53
2022-09-26T19:31:58.583Z,23.40
2022-09-26T19:34:31.755Z,22.00
2022-09-26T19:37:04.010Z,24.03
2022-09-26T19:39:33.738Z,22.67
2022-09-26T19:42:02.114Z,21.30
2022-09-26T19:44:30.446Z,19.97
2022-09-26T19:46:59.917Z,21.33
2022-09-26T19:49:30.013Z,21.60
2022-09-26T19:52:01.083Z,21.13
2022-09-26T19:54:30.102Z,21.17
2022-09-26T19:57:00.239Z,19.87
2022-09-26T19:59:28.676Z,18.97
2022-09-26T20:01:57.323Z,21.07
2022-09-26T20:04:25.871Z,19.83
2022-09-26T20:06:54.223Z,19.17
2022-09-26T20:09:22.646Z,20.47
2022-09-26T20:11:50.983Z,18.57
2022-09-26T20:16:59.013Z,17.40
2022-09-26T20:19:36.268Z,16.80
2022-09-26T20:22:07.513Z,15.53
2022-09-26T20:24:38.422Z,12.83
2022-09-26T20:27:08.929Z,16.43
2022-09-26T20:29:51.613Z,10.77
2022-09-26T20:32:21.878Z,9.77
2022-09-26T20:34:50.237Z,8.53
2022-09-26T20:37:19.891Z,9.03
2022-09-26T20:39:48.592Z,8.23
2022-09-26T20:42:20.016Z,7.90
2022-09-26T20:44:50.886Z,8.40
2022-09-26T20:47:22.895Z,9.27
2022-09-26T20:49:55.571Z,10.37
2022-09-26T20:52:25.258Z,13.70
2022-09-26T20:54:53.918Z,12.60
2022-09-26T20:57:22.404Z,12.00
2022-09-26T20:59:51.668Z,11.43
2022-09-26T21:02:28.864Z,11.37
2022-09-26T21:05:00.215Z,11.63
2022-09-26T21:07:30.198Z,11.57
2022-09-26T21:09:58.992Z,11.70
2022-09-26T21:12:27.293Z,10.23
2022-09-26T21:14:55.629Z,7.93
2022-09-26T21:17:29.350Z,8.87
2022-09-26T21:19:58.041Z,7.27
2022-09-26T21:22:28.483Z,6.63
2022-09-26T21:24:56.908Z,6.50
2022-09-26T21:27:25.476Z,8.43
2022-09-26T21:29:53.888Z,6.20
2022-09-26T21:32:24.095Z,5.83
2022-09-26T21:35:03.269Z,5.67
2022-09-26T21:37:32.475Z,6.00
2022-09-26T21:40:00.853Z,5.00
2022-09-26T21:42:29.295Z,5.77
2022-09-26T21:45:02.973Z,7.70
2022-09-26T21:47:31.582Z,6.40
2022-09-26T21:50:01.469Z,5.70
2022-09-26T21:52:35.807Z,5.10
2022-09-26T21:55:06.242Z,4.13
2022-09-26T21:57:40.026Z,4.30
2022-09-26T22:00:10.254Z,4.50
2022-09-26T22:02:41.527Z,5.33
2022-09-26T22:05:13.262Z,5.87
2022-09-26T22:07:41.573Z,4.60
2022-09-26T22:10:10.246Z,4.80
2022-09-26T22:12:38.567Z,4.20
2022-09-26T22:15:07.960Z,5.23
2022-09-26T22:17:36.398Z,5.60
2022-09-26T22:20:05.655Z,4.90
2022-09-26T22:22:35.461Z,5.43
2022-09-26T22:25:04.499Z,5.80
2022-09-26T22:27:33.852Z,6.03
2022-09-26T22:30:02.308Z,7.20
2022-09-26T22:32:30.626Z,6.57
2022-09-26T22:34:59.002Z,7.23
2022-09-26T22:37:27.337Z,7.83
2022-09-26T22:39:57.102Z,8.20
2022-09-26T22:42:25.532Z,7.83
2022-09-26T22:44:53.818Z,7.50
2022-09-26T22:47:22.446Z,7.40
2022-09-26T22:49:51.191Z,6.70
2022-09-26T22:52:19.522Z,6.87
2022-09-26T22:54:48.145Z,6.97
2022-09-26T22:57:17.907Z,6.63
2022-09-26T22:59:46.236Z,5.80
2022-09-26T23:02:14.660Z,5.30
2022-09-26T23:04:49.086Z,4.43
2022-09-26T23:07:18.795Z,4.20
2022-09-26T23:09:47.393Z,3.90
2022-09-26T23:12:17.350Z,4.73
2022-09-26T23:17:21.165Z,4.37
2022-09-26T23:19:49.491Z,4.33
2022-09-26T23:22:17.856Z,5.07
2022-09-26T23:24:46.206Z,3.53
2022-09-26T23:27:14.546Z,3.90
2022-09-26T23:29:44.464Z,4.03
2022-09-26T23:32:12.822Z,3.77
2022-09-26T23:34:41.132Z,3.90
2022-09-26T23:37:09.483Z,3.10
2022-09-26T23:39:37.740Z,3.00
2022-09-26T23:42:06.285Z,3.33
2022-09-26T23:44:35.024Z,3.20
2022-09-26T23:47:04.795Z,4.10
2022-09-26T23:49:33.264Z,3.07
2022-09-26T23:52:02.505Z,3.23
2022-09-26T23:54:30.824Z,3.03
2022-09-26T23:56:59.191Z,2.60
2022-09-26T23:59:27.507Z,2.00
